Time;durP1;ratioP1;P1;durP2;ratioP2;P2;SDS_P1;SDS_P2;PMS_P1;PMS_P2;Temp;Humidity;BMP_temperature;BMP_pressure;BME280_temperature;BME280_humidity;BME280_pressure;Samples;Min_cycle;Max_cycle;Signal;HPM_P1;HPM_P2
2021/05/20 00:00:50;;;;;;;4.50;4.11;;;;;;;15.80;75.03;99704.71;447576;115;923125;-69
2021/05/20 00:01:54;;;;;;;4.59;4.17;;;;;;;15.79;74.98;99708.55;447507;115;930645;-68
2021/05/20 00:02:57;;;;;;;4.79;4.31;;;;;;;15.79;75.00;99711.30;447318;117;930702;-69
2021/05/20 00:04:01;;;;;;;5.17;4.77;;;;;;;15.79;75.05;99708.55;447956;115;922739;-69
2021/05/20 00:05:06;;;;;;;4.73;4.32;;;;;;;15.77;75.10;99719.80;447806;115;926517;-69
2021/05/20 00:06:10;;;;;;;4.02;3.71;;;;;;;15.78;75.08;99709.64;447007;115;930648;-70
2021/05/20 00:07:14;;;;;;;6.09;4.24;;;;;;;15.78;75.17;99715.14;447877;117;922426;-69
2021/05/20 00:08:18;;;;;;;5.65;4.15;;;;;;;15.78;75.25;99715.14;448152;117;930387;-68
2021/05/20 00:09:21;;;;;;;4.03;3.73;;;;;;;15.78;75.29;99720.64;449114;117;922718;-69
2021/05/20 00:10:25;;;;;;;6.38;4.38;;;;;;;15.78;75.27;99717.89;448257;115;930597;-70
2021/05/20 00:11:29;;;;;;;5.17;4.27;;;;;;;15.78;75.23;99717.89;447929;117;922569;-68
2021/05/20 00:12:32;;;;;;;3.88;3.53;;;;;;;15.79;75.26;99719.55;449464;117;930509;-69
2021/05/20 00:13:36;;;;;;;5.69;3.79;;;;;;;15.79;75.25;99719.55;445984;117;922713;-69
2021/05/20 00:14:40;;;;;;;4.25;3.74;;;;;;;15.79;75.25;99723.12;446924;115;922980;-68
2021/05/20 00:15:44;;;;;;;3.78;3.46;;;;;;;15.78;75.22;99724.22;448195;115;922494;-70
2021/05/20 00:16:48;;;;;;;4.38;3.60;;;;;;;15.78;75.13;99720.64;446524;115;922858;-69
2021/05/20 00:17:51;;;;;;;3.22;2.98;;;;;;;15.78;75.00;99723.39;447187;117;930499;-69
2021/05/20 00:18:55;;;;;;;3.99;3.55;;;;;;;15.77;74.96;99733.55;447400;117;932001;-69
2021/05/20 00:20:00;;;;;;;4.39;3.08;;;;;;;15.75;75.10;99730.27;447317;117;922515;-69
2021/05/20 00:21:04;;;;;;;3.63;3.34;;;;;;;15.77;75.14;99741.80;447451;117;925907;-68
2021/05/20 00:22:08;;;;;;;3.42;3.12;;;;;;;15.78;75.14;99735.21;447334;117;922592;-67
2021/05/20 00:23:12;;;;;;;3.49;3.19;;;;;;;15.80;75.04;99737.70;447319;115;922467;-69
2021/05/20 00:24:16;;;;;;;3.65;3.35;;;;;;;15.81;74.97;99729.19;447198;117;924014;-69
2021/05/20 00:25:19;;;;;;;3.04;2.82;;;;;;;15.82;74.86;99735.52;447463;117;932091;-69
2021/05/20 00:26:24;;;;;;;3.34;3.08;;;;;;;15.83;74.76;99726.15;447986;117;922558;-70
2021/05/20 00:27:27;;;;;;;6.11;3.58;;;;;;;15.83;74.71;99726.15;446586;117;925726;-69
2021/05/20 00:28:31;;;;;;;3.76;3.36;;;;;;;15.82;74.62;99730.02;446990;115;930473;-69
2021/05/20 00:29:35;;;;;;;3.24;2.98;;;;;;;15.82;74.59;99727.27;447630;115;926598;-69
2021/05/20 00:30:40;;;;;;;3.79;3.49;;;;;;;15.82;74.65;99741.02;448735;117;927317;-69
2021/05/20 00:31:44;;;;;;;3.70;3.14;;;;;;;15.82;74.62;99741.81;447939;117;925220;-69
2021/05/20 00:32:48;;;;;;;3.34;3.08;;;;;;;15.81;74.55;99742.94;446396;115;926783;-69
2021/05/20 00:33:51;;;;;;;4.09;3.70;;;;;;;15.80;74.56;99738.53;445036;115;923987;-69
2021/05/20 00:34:55;;;;;;;4.06;3.58;;;;;;;15.81;74.50;99739.36;446389;115;932084;-70
2021/05/20 00:35:59;;;;;;;3.21;2.91;;;;;;;15.79;74.54;99747.86;445789;117;926045;-70
2021/05/20 00:37:04;;;;;;;4.76;3.44;;;;;;;15.78;74.53;99743.45;447669;117;926074;-68
2021/05/20 00:38:11;;;;;;;4.71;2.98;;;;;;;15.77;74.29;99744.55;447387;115;925626;-67
2021/05/20 00:39:15;;;;;;;3.73;3.01;;;;;;;15.76;74.30;99737.42;447052;115;924026;-69
2021/05/20 00:40:19;;;;;;;5.04;3.41;;;;;;;15.75;74.40;99746.76;447148;115;926005;-68
2021/05/20 00:41:23;;;;;;;4.84;3.96;;;;;;;15.74;74.56;99749.77;447112;117;923092;-69
2021/05/20 00:42:28;;;;;;;4.32;3.89;;;;;;;15.75;74.73;99754.17;447280;117;926533;-69
2021/05/20 00:43:32;;;;;;;3.78;3.46;;;;;;;15.75;74.75;99746.76;448233;117;923127;-69
2021/05/20 00:45:00;;;;;;;5.79;3.76;;;;;;;15.75;74.54;99748.67;447216;115;925575;-68
2021/05/20 00:46:04;;;;;;;3.85;3.56;;;;;;;15.75;74.55;99751.42;447320;117;922804;-69
2021/05/20 00:47:08;;;;;;;4.39;4.04;;;;;;;15.73;74.72;99754.44;447468;117;922467;-68
2021/05/20 00:48:12;;;;;;;6.52;4.32;;;;;;;15.73;74.78;99746.19;448101;117;930564;-69
2021/05/20 00:49:16;;;;;;;4.16;3.76;;;;;;;15.74;74.85;99744.27;448808;115;922533;-69
2021/05/20 00:50:22;;;;;;;4.44;4.05;;;;;;;15.75;74.90;99748.67;447544;117;922916;-68
2021/05/20 00:51:26;;;;;;;6.27;4.24;;;;;;;15.77;74.84;99741.80;449232;117;922598;-69
2021/05/20 00:52:30;;;;;;;4.84;4.46;;;;;;;15.77;74.85;99744.55;448718;117;922891;-68
2021/05/20 00:53:33;;;;;;;6.74;4.23;;;;;;;15.78;74.86;99745.38;448517;115;930440;-70
2021/05/20 00:54:37;;;;;;;7.22;5.16;;;;;;;15.79;74.80;99752.53;447061;117;922694;-69
2021/05/20 00:55:43;;;;;;;4.88;4.39;;;;;;;15.78;74.54;99748.95;445406;117;928728;-69
2021/05/20 00:56:48;;;;;;;4.99;4.61;;;;;;;15.75;74.69;99748.67;445975;117;923551;-69
2021/05/20 00:57:54;;;;;;;5.04;4.64;;;;;;;15.74;74.74;99752.52;446063;115;923032;-67
2021/05/20 00:59:02;;;;;;;4.93;4.56;;;;;;;15.73;74.66;99748.11;446287;115;923047;-68
2021/05/20 01:00:11;;;;;;;4.58;4.19;;;;;;;15.72;74.66;99743.70;446816;117;922558;-70
2021/05/20 01:01:16;;;;;;;5.04;4.74;;;;;;;15.70;74.77;99751.41;446947;117;922604;-67
2021/05/20 01:02:21;;;;;;;5.32;4.67;;;;;;;15.70;74.59;99745.91;447502;117;923467;-68
2021/05/20 01:03:25;;;;;;;4.97;4.47;;;;;;;15.67;74.67;99747.26;445513;117;923119;-69
2021/05/20 01:04:29;;;;;;;5.44;5.11;;;;;;;15.66;74.73;99742.85;447779;117;922664;-70
2021/05/20 01:05:32;;;;;;;4.61;4.21;;;;;;;15.66;74.79;99740.10;448456;117;923177;-70
2021/05/20 01:06:37;;;;;;;5.33;4.94;;;;;;;15.66;74.88;99744.77;448286;117;931892;-67
2021/05/20 01:07:41;;;;;;;5.11;4.68;;;;;;;15.65;74.92;99745.89;448322;117;922864;-68
2021/05/20 01:08:45;;;;;;;5.22;4.91;;;;;;;15.67;74.79;99750.01;449137;117;923223;-68
2021/05/20 01:09:49;;;;;;;6.33;5.11;;;;;;;15.67;74.75;99746.42;449423;117;922671;-69
2021/05/20 01:10:55;;;;;;;5.37;4.99;;;;;;;15.67;74.91;99744.52;448250;117;922717;-71
2021/05/20 01:12:00;;;;;;;8.62;4.92;;;;;;;15.69;74.96;99749.75;447998;117;924484;-69
2021/05/20 01:13:04;;;;;;;5.63;4.91;;;;;;;15.71;74.95;99750.31;448230;117;922675;-70
2021/05/20 01:14:11;;;;;;;5.44;5.05;;;;;;;15.72;74.90;99751.94;449696;117;926833;-68
2021/05/20 01:15:25;;;;;;;5.40;4.96;;;;;;;15.75;74.84;99748.67;448933;117;924084;-69
2021/05/20 01:16:29;;;;;;;5.15;4.75;;;;;;;15.75;74.74;99751.42;447884;117;925335;-69
2021/05/20 01:17:33;;;;;;;4.94;4.56;;;;;;;15.77;74.69;99751.96;446899;117;923995;-68
2021/05/20 01:18:37;;;;;;;4.90;4.60;;;;;;;15.78;74.72;99750.88;446960;117;934992;-69
2021/05/20 01:19:46;;;;;;;5.15;4.72;;;;;;;15.77;74.73;99750.05;447779;117;924072;-69
2021/05/20 01:20:50;;;;;;;5.35;4.82;;;;;;;15.77;74.70;99733.55;447344;117;925900;-70
2021/05/20 01:21:54;;;;;;;4.95;4.65;;;;;;;15.78;74.74;99743.45;447886;117;924067;-69
2021/05/20 01:23:03;;;;;;;5.18;4.78;;;;;;;15.79;74.69;99738.78;447634;117;926243;-69
2021/05/20 01:24:07;;;;;;;5.82;5.43;;;;;;;15.79;74.61;99738.78;448380;117;923020;-69
2021/05/20 01:25:12;;;;;;;5.04;4.74;;;;;;;15.79;74.54;99744.28;448370;117;922533;-68
2021/05/20 01:26:17;;;;;;;5.41;4.77;;;;;;;15.77;74.41;99741.80;447664;117;923081;-69
2021/05/20 01:27:20;;;;;;;4.94;4.54;;;;;;;15.75;74.56;99733.02;448291;117;923134;-69
2021/05/20 01:28:28;;;;;;;4.93;4.61;;;;;;;15.75;74.61;99745.92;448259;117;924234;-71
2021/05/20 01:29:33;;;;;;;5.39;4.70;;;;;;;15.74;74.63;99739.60;448318;117;930475;-69
2021/05/20 01:30:41;;;;;;;5.35;4.95;;;;;;;15.75;74.68;99732.19;447841;117;924086;-70
2021/05/20 01:31:45;;;;;;;5.24;4.83;;;;;;;15.75;74.77;99740.43;448878;117;922686;-69
2021/05/20 01:32:49;;;;;;;5.24;4.84;;;;;;;15.76;74.82;99740.17;448893;117;924139;-69
2021/05/20 01:33:52;;;;;;;6.34;5.26;;;;;;;15.76;74.84;99734.67;448526;117;922471;-69
2021/05/20 01:34:59;;;;;;;4.99;4.46;;;;;;;15.76;74.94;99734.67;451068;117;922893;-69
2021/05/20 01:36:03;;;;;;;5.69;5.30;;;;;;;15.78;74.95;99737.13;450863;117;923015;-69
2021/05/20 01:37:08;;;;;;;5.21;4.91;;;;;;;15.79;75.02;99739.62;448959;117;924168;-70
2021/05/20 01:39:27;;;;;;;5.26;4.96;;;;;;;15.82;75.11;99743.77;447749;117;922578;-69
2021/05/20 01:40:31;;;;;;;4.68;4.35;;;;;;;15.83;75.08;99737.14;447504;117;922380;-69
2021/05/20 01:41:34;;;;;;;5.01;4.62;;;;;;;15.83;75.03;99739.89;448310;117;923206;-69
2021/05/20 01:42:38;;;;;;;4.59;4.29;;;;;;;15.83;74.87;99748.97;448249;117;930957;-68
2021/05/20 01:43:41;;;;;;;4.29;3.96;;;;;;;15.84;74.82;99744.30;447854;117;923061;-70
2021/05/20 01:44:45;;;;;;;4.44;4.06;;;;;;;15.84;74.81;99739.63;447552;117;930786;-68
2021/05/20 01:45:57;;;;;;;4.57;3.86;;;;;;;15.85;74.76;99751.45;448231;117;923841;-68
2021/05/20 01:46:55;;;;;;;4.38;4.08;;;;;;;15.84;74.54;99750.63;447928;117;922602;-69
2021/05/20 01:47:59;;;;;;;4.05;3.79;;;;;;;15.85;74.59;99745.95;448700;117;922988;-69
2021/05/20 01:49:09;;;;;;;4.62;4.11;;;;;;;15.84;74.62;99744.30;448936;117;923090;-69
2021/05/20 01:50:09;;;;;;;5.19;4.86;;;;;;;15.84;74.65;99756.13;448160;117;923123;-70
2021/05/20 01:51:15;;;;;;;4.61;4.23;;;;;;;15.85;74.70;99757.78;449060;117;922959;-68
2021/05/20 01:52:19;;;;;;;4.26;3.96;;;;;;;15.87;74.75;99752.03;449091;117;922546;-70
2021/05/20 01:53:23;;;;;;;4.30;3.99;;;;;;;15.88;74.66;99756.41;449747;117;922825;-69
2021/05/20 01:54:27;;;;;;;4.41;4.10;;;;;;;15.90;74.64;99756.97;449892;117;923010;-70
2021/05/20 01:55:30;;;;;;;4.53;4.23;;;;;;;15.91;74.60;99750.38;448247;117;922808;-69
2021/05/20 01:56:36;;;;;;;4.58;4.22;;;;;;;15.93;74.60;99742.70;445820;117;930675;-69
2021/05/20 01:57:39;;;;;;;4.59;4.22;;;;;;;15.95;74.56;99747.91;446226;117;930454;-69
2021/05/20 01:59:05;;;;;;;4.10;3.81;;;;;;;15.97;74.58;99746.55;447394;117;924249;-69
2021/05/20 02:00:25;;;;;;;4.87;4.51;;;;;;;15.98;74.55;99748.22;446671;117;923227;-67
2021/05/20 02:01:29;;;;;;;4.70;4.40;;;;;;;16.00;74.47;99751.50;447243;117;922785;-70
2021/05/20 02:02:32;;;;;;;6.72;4.51;;;;;;;15.99;74.57;99749.05;447454;117;923108;-69
2021/05/20 02:03:36;;;;;;;6.27;3.94;;;;;;;15.98;74.77;99748.22;448255;116;930722;-69
2021/05/20 02:04:40;;;;;;;4.56;4.24;;;;;;;15.99;74.91;99754.55;449153;116;922818;-68
2021/05/20 02:05:44;;;;;;;4.41;3.85;;;;;;;16.01;74.97;99749.58;448972;116;922903;-69
2021/05/20 02:06:47;;;;;;;4.36;3.45;;;;;;;16.02;74.98;99757.56;449973;115;922974;-69
2021/05/20 02:07:51;;;;;;;4.98;4.28;;;;;;;16.03;75.00;99755.64;449749;115;923176;-68
2021/05/20 02:08:54;;;;;;;3.66;3.42;;;;;;;16.03;75.07;99756.48;450108;116;923018;-68
2021/05/20 02:09:58;;;;;;;3.72;3.52;;;;;;;16.04;75.20;99758.13;450541;116;924000;-68
2021/05/20 02:11:03;;;;;;;4.34;3.80;;;;;;;16.07;75.22;99754.00;450768;115;923005;-67
2021/05/20 02:12:07;;;;;;;3.89;3.64;;;;;;;16.08;75.19;99755.66;449944;115;923102;-69
2021/05/20 02:13:11;;;;;;;3.86;3.53;;;;;;;16.10;75.06;99754.27;450505;116;922984;-69
2021/05/20 02:14:15;;;;;;;4.05;3.75;;;;;;;16.09;74.97;99757.31;451672;116;931990;-69
2021/05/20 02:15:20;;;;;;;4.22;3.92;;;;;;;16.07;75.08;99763.08;450895;115;922543;-69
2021/05/20 02:16:26;;;;;;;4.38;4.08;;;;;;;16.07;74.99;99754.00;449004;116;923140;-66
2021/05/20 02:17:30;;;;;;;3.59;3.39;;;;;;;16.08;75.05;99752.91;447069;115;924674;-68
2021/05/20 02:18:36;;;;;;;4.44;4.12;;;;;;;16.11;75.03;99760.60;448167;116;924059;-67
2021/05/20 02:19:40;;;;;;;4.52;4.02;;;;;;;16.11;74.98;99755.94;449169;115;923987;-69
2021/05/20 02:20:44;;;;;;;4.41;4.09;;;;;;;16.12;74.90;99757.59;448766;115;922811;-69
2021/05/20 02:21:48;;;;;;;4.92;4.58;;;;;;;16.13;74.88;99762.00;447674;116;925601;-70
2021/05/20 02:22:52;;;;;;;4.43;4.18;;;;;;;16.13;74.85;99756.50;448713;114;924053;-69
2021/05/20 02:23:56;;;;;;;5.22;4.81;;;;;;;16.13;74.78;99759.25;448611;115;933443;-70
2021/05/20 02:25:00;;;;;;;5.33;4.87;;;;;;;16.13;74.75;99759.25;449262;116;924106;-67
2021/05/20 02:26:03;;;;;;;5.43;5.08;;;;;;;16.14;74.72;99762.83;449029;116;926460;-69
2021/05/20 02:27:07;;;;;;;5.38;4.88;;;;;;;16.13;74.69;99759.25;449250;116;930438;-68
2021/05/20 02:28:11;;;;;;;5.87;5.14;;;;;;;16.12;74.63;99760.34;450972;116;924044;-67
2021/05/20 02:29:15;;;;;;;5.24;4.94;;;;;;;16.12;74.68;99762.27;450351;115;925597;-69
2021/05/20 02:30:20;;;;;;;5.14;4.84;;;;;;;16.11;74.66;99758.69;449968;116;923006;-69
2021/05/20 02:31:23;;;;;;;4.78;4.44;;;;;;;16.12;74.62;99770.52;450210;114;924200;-68
2021/05/20 02:32:27;;;;;;;4.88;4.58;;;;;;;16.11;74.61;99764.18;450828;116;924044;-69
2021/05/20 02:33:31;;;;;;;4.85;4.47;;;;;;;16.10;74.58;99770.77;450383;116;923487;-69
2021/05/20 02:34:35;;;;;;;4.89;4.39;;;;;;;16.09;74.68;99765.56;450449;116;922681;-69
2021/05/20 02:35:41;;;;;;;4.81;4.51;;;;;;;16.08;74.77;99766.66;451372;114;923267;-68
2021/05/20 02:36:55;;;;;;;4.98;4.41;;;;;;;16.07;74.86;99774.08;450159;116;933446;-69
2021/05/20 02:38:05;;;;;;;4.89;4.43;;;;;;;16.08;74.86;99766.66;446732;116;923442;-69
2021/05/20 02:39:12;;;;;;;4.56;4.26;;;;;;;16.08;74.78;99761.16;436969;116;922756;-68
2021/05/20 02:40:19;;;;;;;4.29;3.86;;;;;;;16.06;74.74;99769.67;437464;118;923098;-68
2021/05/20 02:41:23;;;;;;;4.18;3.88;;;;;;;16.06;74.76;99763.34;447032;115;922567;-69
2021/05/20 02:42:27;;;;;;;4.08;3.77;;;;;;;16.04;74.83;99766.38;449982;116;930495;-66
2021/05/20 02:43:32;;;;;;;4.53;3.96;;;;;;;16.05;74.85;99769.93;447755;116;930547;-69
2021/05/20 02:44:39;;;;;;;4.50;4.19;;;;;;;16.04;74.85;99769.13;448538;116;922498;-67
2021/05/20 02:45:46;;;;;;;3.33;3.13;;;;;;;16.03;74.81;99772.97;449211;115;922369;-66
2021/05/20 02:48:41;;;;;;;3.94;3.46;;;;;;;16.02;74.64;99779.56;448043;118;922932;-69
2021/05/20 02:49:46;;;;;;;3.63;3.23;;;;;;;15.99;74.60;99785.59;439868;119;922649;-68
2021/05/20 02:50:50;;;;;;;2.96;2.72;;;;;;;15.96;74.49;99783.39;441417;116;923159;-69
2021/05/20 02:52:14;;;;;;;1.94;1.84;;;;;;;15.93;74.50;99781.20;449380;116;922538;-67
2021/05/20 02:53:30;;;;;;;2.34;2.15;;;;;;;15.92;74.25;99776.78;450215;116;923052;-69
2021/05/20 02:54:53;;;;;;;2.13;1.94;;;;;;;15.88;74.02;99791.34;449530;116;925648;-67
2021/05/20 02:56:14;;;;;;;1.93;1.73;;;;;;;15.83;74.03;99797.62;447173;116;922560;-68
2021/05/20 02:57:20;;;;;;;2.06;1.78;;;;;;;15.78;74.07;99794.84;448876;116;922528;-68
2021/05/20 02:58:29;;;;;;;1.67;1.39;;;;;;;15.74;73.98;99794.57;451311;115;923083;-69
2021/05/20 02:59:33;;;;;;;1.53;1.43;;;;;;;15.70;73.91;99793.45;451226;115;922536;-68
2021/05/20 03:00:38;;;;;;;1.37;1.31;;;;;;;15.69;73.99;99796.47;448163;117;922722;-68
2021/05/20 03:01:44;;;;;;;1.41;1.31;;;;;;;15.67;73.93;99793.15;447850;117;922389;-68
2021/05/20 03:02:48;;;;;;;1.25;1.20;;;;;;;15.64;73.92;99800.02;447260;115;923056;-71
2021/05/20 03:03:52;;;;;;;2.42;1.35;;;;;;;15.62;73.90;99801.37;447368;117;922647;-67
2021/05/20 03:04:56;;;;;;;1.79;1.54;;;;;;;15.60;73.87;99798.08;447101;117;923013;-66
2021/05/20 03:06:00;;;;;;;1.64;1.29;;;;;;;15.59;73.92;99793.67;446663;117;932377;-67
2021/05/20 03:07:06;;;;;;;1.56;1.36;;;;;;;15.55;73.52;99801.60;447105;117;931632;-67
2021/05/20 03:08:11;;;;;;;1.44;1.33;;;;;;;15.53;73.52;99794.73;447924;115;927843;-69
2021/05/20 03:09:20;;;;;;;1.69;1.57;;;;;;;15.48;73.24;99801.00;448736;116;922548;-71
2021/05/20 03:10:26;;;;;;;2.62;1.66;;;;;;;15.42;73.39;99797.40;449537;116;922905;-68
2021/05/20 03:11:32;;;;;;;1.55;1.45;;;;;;;15.37;73.71;99799.28;447648;115;923427;-70
2021/05/20 03:12:36;;;;;;;2.46;2.26;;;;;;;15.36;73.84;99797.63;447776;117;923085;-69
2021/05/20 03:13:39;;;;;;;2.29;1.99;;;;;;;15.33;74.08;99807.20;448590;117;930355;-67
2021/05/20 03:14:43;;;;;;;1.77;1.64;;;;;;;15.31;74.34;99797.59;449150;117;922975;-67
2021/05/20 03:15:49;;;;;;;2.84;1.79;;;;;;;15.30;74.54;99810.50;448903;115;922697;-68
2021/05/20 03:16:55;;;;;;;3.12;2.06;;;;;;;15.29;74.58;99800.59;447916;117;930423;-71
2021/05/20 03:17:59;;;;;;;1.91;1.76;;;;;;;15.29;74.73;99811.58;449253;117;923510;-69
2021/05/20 03:19:03;;;;;;;2.51;1.98;;;;;;;15.29;74.81;99811.58;450250;117;922820;-68
2021/05/20 03:20:09;;;;;;;2.34;2.11;;;;;;;15.31;74.78;99808.58;448820;117;930332;-67
2021/05/20 03:21:13;;;;;;;3.03;2.02;;;;;;;15.32;74.80;99799.25;447383;117;924050;-69
2021/05/20 03:22:17;;;;;;;2.09;1.81;;;;;;;15.33;74.91;99809.95;447009;117;923020;-68
2021/05/20 03:23:21;;;;;;;2.36;1.89;;;;;;;15.35;74.87;99805.03;446261;117;924028;-67
2021/05/20 03:24:24;;;;;;;1.86;1.76;;;;;;;15.37;74.85;99805.61;446774;117;924084;-67
2021/05/20 03:25:28;;;;;;;3.31;1.96;;;;;;;15.40;74.83;99805.06;447322;115;922864;-66
2021/05/20 03:26:32;;;;;;;2.27;2.01;;;;;;;15.41;74.77;99806.72;447331;117;924119;-68
2021/05/20 03:27:36;;;;;;;3.45;2.28;;;;;;;15.44;74.77;99805.34;447397;117;923060;-66
2021/05/20 03:28:41;;;;;;;2.37;2.13;;;;;;;15.45;74.78;99802.34;446897;117;932591;-68
2021/05/20 03:29:45;;;;;;;2.25;2.06;;;;;;;15.48;74.70;99797.42;448204;117;926916;-71
2021/05/20 03:30:51;;;;;;;3.00;2.09;;;;;;;15.49;74.62;99804.58;447510;117;923328;-69
2021/05/20 03:31:54;;;;;;;3.19;1.99;;;;;;;15.51;74.49;99805.95;448273;117;922563;-68
2021/05/20 03:32:58;;;;;;;3.08;2.06;;;;;;;15.51;74.34;99805.95;447980;115;930351;-68
2021/05/20 03:34:02;;;;;;;2.24;1.98;;;;;;;15.52;74.04;99804.06;447850;117;922394;-68
2021/05/20 03:35:06;;;;;;;3.94;2.04;;;;;;;15.53;73.93;99811.22;448206;117;922609;-69
2021/05/20 03:36:11;;;;;;;1.98;1.82;;;;;;;15.52;73.78;99804.89;449538;117;922760;-70
2021/05/20 03:37:15;;;;;;;2.25;1.74;;;;;;;15.53;73.51;99808.47;449147;117;923036;-69
2021/05/20 03:38:19;;;;;;;2.26;1.94;;;;;;;15.54;73.26;99796.39;447843;117;922744;-69
2021/05/20 03:39:23;;;;;;;1.49;1.39;;;;;;;15.53;73.01;99812.05;448684;115;930357;-69
2021/05/20 03:40:27;;;;;;;2.11;1.63;;;;;;;15.54;72.86;99810.13;450127;117;923135;-70
2021/05/20 03:41:30;;;;;;;3.19;1.56;;;;;;;15.53;72.74;99806.55;448208;117;923102;-68
2021/05/20 03:42:35;;;;;;;1.57;1.47;;;;;;;15.54;72.59;99802.72;447360;115;923126;-67
2021/05/20 03:43:38;;;;;;;2.44;1.58;;;;;;;15.54;72.53;99812.88;448733;117;922737;-69
2021/05/20 03:44:44;;;;;;;3.88;1.85;;;;;;;15.54;72.66;99808.22;446931;117;923121;-70
2021/05/20 03:45:47;;;;;;;1.70;1.39;;;;;;;15.56;72.37;99810.67;446600;115;922721;-69
2021/05/20 03:46:51;;;;;;;2.06;1.46;;;;;;;15.56;71.90;99817.00;447700;115;930271;-71
2021/05/20 03:47:58;;;;;;;2.35;1.27;;;;;;;15.56;71.66;99806.01;447518;115;930387;-74
2021/05/20 03:49:05;;;;;;;1.34;1.24;;;;;;;15.56;71.47;99813.42;437926;120;923207;-73
2021/05/20 03:50:12;;;;;;;1.94;1.50;;;;;;;15.56;71.47;99813.42;444657;117;930157;-73
2021/05/20 03:51:17;;;;;;;2.07;1.32;;;;;;;15.57;71.57;99815.08;448248;115;923372;-74
2021/05/20 03:52:20;;;;;;;4.14;1.49;;;;;;;15.58;71.50;99816.74;443519;117;923063;-74
2021/05/20 03:53:34;;;;;;;1.82;1.41;;;;;;;15.59;71.54;99816.48;448723;117;922707;-72
2021/05/20 03:54:43;;;;;;;2.05;1.34;;;;;;;15.58;71.62;99809.33;447420;117;922568;-79
2021/05/20 03:55:48;;;;;;;1.64;1.27;;;;;;;15.58;71.62;99809.33;442637;117;930468;-72
2021/05/20 03:56:52;;;;;;;1.79;1.43;;;;;;;15.65;71.50;99814.59;442812;117;924089;-74
2021/05/20 03:57:56;;;;;;;1.69;1.55;;;;;;;15.67;71.49;99820.63;449681;116;924976;-73
2021/05/20 03:59:00;;;;;;;1.96;1.38;;;;;;;15.69;71.33;99819.28;447829;117;931814;-75
2021/05/20 04:00:07;;;;;;;1.54;1.44;;;;;;;15.70;71.29;99829.19;447845;115;922592;-74
2021/05/20 04:01:13;;;;;;;1.76;1.34;;;;;;;15.73;71.29;99830.56;446918;117;926190;-74
2021/05/20 04:02:17;;;;;;;1.76;1.27;;;;;;;15.74;71.00;99833.05;438931;116;923297;-78
2021/05/20 04:03:27;;;;;;;1.95;1.46;;;;;;;15.76;71.00;99836.38;441979;117;924540;-74
2021/05/20 04:04:31;;;;;;;1.81;1.19;;;;;;;15.78;70.93;99825.09;447930;116;924170;-72
2021/05/20 04:05:35;;;;;;;1.41;1.30;;;;;;;15.78;70.40;99833.33;446714;117;925400;-74
2021/05/20 04:06:39;;;;;;;1.64;1.39;;;;;;;15.78;70.62;99834.16;448471;116;922781;-74
2021/05/20 04:07:43;;;;;;;1.89;1.21;;;;;;;15.78;70.62;99842.41;448730;116;925855;-74
2021/05/20 04:08:47;;;;;;;1.86;1.26;;;;;;;15.79;70.47;99844.07;448303;116;926603;-72
2021/05/20 04:09:52;;;;;;;2.04;1.15;;;;;;;15.78;69.99;99850.66;448881;117;924075;-73
2021/05/20 04:10:56;;;;;;;2.68;1.13;;;;;;;15.77;69.79;99848.99;449040;117;925467;-74
2021/05/20 04:12:00;;;;;;;3.00;1.19;;;;;;;15.74;69.50;99837.72;449315;116;923874;-71
2021/05/20 04:13:04;;;;;;;2.06;1.52;;;;;;;15.72;69.76;99845.39;448879;115;924057;-71
2021/05/20 04:14:08;;;;;;;1.73;1.40;;;;;;;15.69;69.87;99852.27;448789;117;926307;-70
2021/05/20 04:15:13;;;;;;;2.75;1.24;;;;;;;15.70;69.90;99839.35;449038;117;931750;-73
2021/05/20 04:16:23;;;;;;;1.98;1.31;;;;;;;15.70;69.88;99844.84;449043;116;925371;-73
2021/05/20 04:17:25;;;;;;;2.02;1.23;;;;;;;15.71;69.92;99857.50;449062;115;925301;-72
2021/05/20 04:18:30;;;;;;;2.04;1.20;;;;;;;15.72;70.04;99862.71;449423;115;922562;-73
2021/05/20 04:19:34;;;;;;;1.45;1.28;;;;;;;15.73;69.89;99858.88;449724;117;922781;-77
2021/05/20 04:20:38;;;;;;;1.43;1.32;;;;;;;15.73;69.70;99858.88;442796;118;926847;-74
2021/05/20 04:21:43;;;;;;;2.72;1.36;;;;;;;15.74;69.55;99860.53;443845;117;922958;-73
2021/05/20 04:22:47;;;;;;;1.31;1.08;;;;;;;15.76;69.62;99869.36;450303;117;924079;-75
2021/05/20 04:23:51;;;;;;;1.65;1.09;;;;;;;15.77;69.61;99870.98;451431;117;926850;-78
2021/05/20 04:24:54;;;;;;;1.38;1.19;;;;;;;15.77;69.35;99870.98;449245;117;922515;-74
2021/05/20 04:25:58;;;;;;;1.40;1.02;;;;;;;15.77;69.18;99873.73;442518;118;922896;-75
2021/05/20 04:27:03;;;;;;;2.44;1.43;;;;;;;15.79;69.13;99873.48;443239;117;922670;-79
2021/05/20 04:28:07;;;;;;;1.57;1.22;;;;;;;15.80;69.10;99883.38;446685;117;930276;-76
2021/05/20 04:29:10;;;;;;;2.41;1.44;;;;;;;15.79;69.07;99874.31;449082;116;922721;-80
2021/05/20 04:30:15;;;;;;;1.20;1.10;;;;;;;15.79;68.66;99877.05;448878;117;922831;-78
2021/05/20 04:31:18;;;;;;;1.67;1.16;;;;;;;15.80;68.64;99877.88;447504;117;922552;-74
2021/05/20 04:32:22;;;;;;;1.73;1.08;;;;;;;15.79;68.47;99881.72;448896;116;922983;-77
2021/05/20 04:33:26;;;;;;;1.11;0.89;;;;;;;15.78;68.09;99875.39;448694;116;923088;-75
2021/05/20 04:34:29;;;;;;;0.89;0.86;;;;;;;15.78;67.75;99877.31;448688;116;922398;-77
2021/05/20 04:35:34;;;;;;;0.92;0.91;;;;;;;15.74;67.76;99870.70;448004;117;930035;-76
2021/05/20 04:36:38;;;;;;;1.82;1.00;;;;;;;15.72;67.73;99879.20;448525;115;922502;-76
2021/05/20 04:37:41;;;;;;;1.52;1.11;;;;;;;15.72;67.65;99878.37;448837;117;922847;-76
2021/05/20 04:38:45;;;;;;;0.99;0.74;;;;;;;15.71;67.61;99884.98;449364;115;922641;-74
2021/05/20 04:39:48;;;;;;;1.71;1.05;;;;;;;15.69;67.49;99877.00;449728;115;922665;-79
2021/05/20 04:40:52;;;;;;;1.21;1.08;;;;;;;15.67;67.37;99881.09;449622;116;922833;-77
2021/05/20 04:41:56;;;;;;;1.35;1.09;;;;;;;15.66;67.20;99893.17;449678;116;922504;-77
2021/05/20 04:42:59;;;;;;;0.91;0.90;;;;;;;15.64;67.27;99881.63;449164;117;922918;-73
2021/05/20 04:44:04;;;;;;;1.08;0.96;;;;;;;15.62;67.42;99879.14;450978;117;922915;-72
2021/05/20 04:45:08;;;;;;;2.99;1.08;;;;;;;15.61;67.27;99884.89;449666;115;922874;-80
2021/05/20 04:46:13;;;;;;;2.19;1.66;;;;;;;15.59;67.27;99884.35;449180;116;922814;-77
2021/05/20 04:47:17;;;;;;;0.83;0.74;;;;;;;15.57;67.45;99892.85;448984;117;922833;-77
2021/05/20 04:48:21;;;;;;;1.16;0.95;;;;;;;15.57;67.42;99889.27;450324;115;926507;-76
2021/05/20 04:49:26;;;;;;;1.22;0.90;;;;;;;15.55;67.48;99897.77;448858;116;931755;-77
2021/05/20 04:50:31;;;;;;;1.26;0.97;;;;;;;15.53;67.55;99890.91;446550;117;923968;-72
2021/05/20 04:51:36;;;;;;;2.10;0.84;;;;;;;15.53;67.68;99894.48;447766;117;926900;-79
2021/05/20 04:52:41;;;;;;;3.82;0.95;;;;;;;15.54;67.63;99898.89;448262;117;924140;-77
2021/05/20 04:53:45;;;;;;;1.00;0.91;;;;;;;15.54;67.82;99906.30;447726;117;924001;-78
2021/05/20 04:54:49;;;;;;;1.66;0.87;;;;;;;15.52;67.86;99895.56;448951;116;923995;-80
2021/05/20 04:55:54;;;;;;;2.45;1.14;;;;;;;15.52;67.97;99901.06;448026;116;926651;-75
2021/05/20 04:56:57;;;;;;;1.49;0.91;;;;;;;15.50;68.15;99905.12;449187;117;924066;-74
2021/05/20 04:58:01;;;;;;;2.41;1.26;;;;;;;15.49;68.33;99900.73;448935;117;923943;-66
2021/05/20 04:59:05;;;;;;;2.15;1.19;;;;;;;15.49;68.57;99904.31;449057;116;931064;-67
2021/05/20 05:00:14;;;;;;;2.02;0.93;;;;;;;15.50;68.67;99902.37;448675;117;922497;-68
2021/05/20 05:01:24;;;;;;;1.90;0.99;;;;;;;15.52;68.74;99905.73;449783;117;922673;-69
2021/05/20 05:02:28;;;;;;;2.06;0.87;;;;;;;15.53;68.73;99901.89;449547;115;922460;-68
2021/05/20 05:03:31;;;;;;;1.04;0.78;;;;;;;15.54;68.83;99906.30;443127;118;923177;-68
2021/05/20 05:04:35;;;;;;;5.43;1.13;;;;;;;15.54;68.95;99903.55;444381;117;930809;-70
2021/05/20 05:05:38;;;;;;;1.11;1.09;;;;;;;15.55;68.86;99899.72;445365;117;930254;-69